Terminal Aerodrome Forecast
Issued by NWS Shreveport, LA

Home | Current Version | Previous Version | Text Only | Print | Product List | Glossary On
Versions: 1 2 3 4 5 6 7 8 9 10 11 12 13 14
000
FTUS44 KSHV 270500
TAFTYR
TAF
KTYR 270532Z 2706/2806 35004KT P6SM SKC
     FM271400 02006KT P6SM SKC
     FM272100 06005KT P6SM SKC
     FM280200 12004KT P6SM SKC=

USA.gov is the U.S. government's official web portal to all federal, state and local government web resources and services.